sensor_id;sensor_type;location;lat;lon;timestamp;P1;durP1;ratioP1;P2;durP2;ratioP2
2618;SDS011;1319;52.346;13.096;2023-02-08T00:00:09;34.67;;;13.90;;
2618;SDS011;1319;52.346;13.096;2023-02-08T00:02:34;33.67;;;14.70;;
2618;SDS011;1319;52.346;13.096;2023-02-08T00:04:59;33.70;;;15.00;;
2618;SDS011;1319;52.346;13.096;2023-02-08T00:07:24;35.57;;;15.10;;
2618;SDS011;1319;52.346;13.096;2023-02-08T00:09:50;32.57;;;14.10;;
2618;SDS011;1319;52.346;13.096;2023-02-08T00:12:15;33.10;;;15.40;;
2618;SDS011;1319;52.346;13.096;2023-02-08T00:14:40;31.27;;;14.43;;
2618;SDS011;1319;52.346;13.096;2023-02-08T00:17:05;37.10;;;15.50;;
2618;SDS011;1319;52.346;13.096;2023-02-08T00:19:30;33.80;;;14.57;;
2618;SDS011;1319;52.346;13.096;2023-02-08T00:21:56;38.17;;;15.23;;
2618;SDS011;1319;52.346;13.096;2023-02-08T00:24:21;33.50;;;14.70;;
2618;SDS011;1319;52.346;13.096;2023-02-08T00:26:46;36.47;;;14.73;;
2618;SDS011;1319;52.346;13.096;2023-02-08T00:29:11;35.73;;;14.40;;
2618;SDS011;1319;52.346;13.096;2023-02-08T00:31:36;35.27;;;14.77;;
2618;SDS011;1319;52.346;13.096;2023-02-08T00:34:02;34.70;;;14.97;;
2618;SDS011;1319;52.346;13.096;2023-02-08T00:36:27;33.00;;;14.63;;
2618;SDS011;1319;52.346;13.096;2023-02-08T00:38:52;33.07;;;14.73;;
2618;SDS011;1319;52.346;13.096;2023-02-08T00:41:17;38.57;;;15.77;;
2618;SDS011;1319;52.346;13.096;2023-02-08T00:43:43;35.47;;;15.27;;
2618;SDS011;1319;52.346;13.096;2023-02-08T00:46:08;33.00;;;15.00;;
2618;SDS011;1319;52.346;13.096;2023-02-08T00:48:33;38.80;;;15.03;;
2618;SDS011;1319;52.346;13.096;2023-02-08T00:51:00;38.43;;;15.73;;
2618;SDS011;1319;52.346;13.096;2023-02-08T00:53:25;34.70;;;15.33;;
2618;SDS011;1319;52.346;13.096;2023-02-08T00:55:51;35.50;;;15.93;;
2618;SDS011;1319;52.346;13.096;2023-02-08T00:58:16;36.43;;;14.50;;
2618;SDS011;1319;52.346;13.096;2023-02-08T01:00:42;35.57;;;16.10;;
2618;SDS011;1319;52.346;13.096;2023-02-08T01:03:07;35.73;;;15.00;;
2618;SDS011;1319;52.346;13.096;2023-02-08T01:05:32;39.13;;;15.40;;
2618;SDS011;1319;52.346;13.096;2023-02-08T01:07:58;34.90;;;15.10;;
2618;SDS011;1319;52.346;13.096;2023-02-08T01:10:23;35.73;;;15.40;;
2618;SDS011;1319;52.346;13.096;2023-02-08T01:12:48;35.07;;;15.80;;
2618;SDS011;1319;52.346;13.096;2023-02-08T01:15:13;38.47;;;16.10;;
2618;SDS011;1319;52.346;13.096;2023-02-08T01:17:38;38.37;;;15.80;;
2618;SDS011;1319;52.346;13.096;2023-02-08T01:20:04;38.80;;;16.77;;
2618;SDS011;1319;52.346;13.096;2023-02-08T01:22:29;36.53;;;15.40;;
2618;SDS011;1319;52.346;13.096;2023-02-08T01:24:54;33.17;;;14.70;;
2618;SDS011;1319;52.346;13.096;2023-02-08T01:27:20;36.03;;;15.80;;
2618;SDS011;1319;52.346;13.096;2023-02-08T01:29:45;37.57;;;16.33;;
2618;SDS011;1319;52.346;13.096;2023-02-08T01:32:10;40.43;;;16.07;;
2618;SDS011;1319;52.346;13.096;2023-02-08T01:34:36;36.30;;;16.20;;
2618;SDS011;1319;52.346;13.096;2023-02-08T01:37:01;35.40;;;16.37;;
2618;SDS011;1319;52.346;13.096;2023-02-08T01:39:26;42.03;;;17.50;;
2618;SDS011;1319;52.346;13.096;2023-02-08T01:41:51;37.10;;;16.23;;
2618;SDS011;1319;52.346;13.096;2023-02-08T01:46:46;35.60;;;16.00;;
2618;SDS011;1319;52.346;13.096;2023-02-08T01:51:48;39.23;;;17.83;;
2618;SDS011;1319;52.346;13.096;2023-02-08T01:54:15;40.70;;;16.73;;
2618;SDS011;1319;52.346;13.096;2023-02-08T01:56:41;38.23;;;16.73;;
2618;SDS011;1319;52.346;13.096;2023-02-08T01:59:10;40.30;;;17.67;;
2618;SDS011;1319;52.346;13.096;2023-02-08T02:01:36;43.37;;;16.63;;
2618;SDS011;1319;52.346;13.096;2023-02-08T02:04:02;45.77;;;16.00;;
2618;SDS011;1319;52.346;13.096;2023-02-08T02:06:30;46.60;;;17.90;;
2618;SDS011;1319;52.346;13.096;2023-02-08T02:09:01;39.73;;;17.93;;
2618;SDS011;1319;52.346;13.096;2023-02-08T02:11:27;42.77;;;18.17;;
2618;SDS011;1319;52.346;13.096;2023-02-08T02:13:52;42.67;;;18.70;;
2618;SDS011;1319;52.346;13.096;2023-02-08T02:16:18;43.83;;;18.63;;
2618;SDS011;1319;52.346;13.096;2023-02-08T02:18:43;49.93;;;18.10;;
2618;SDS011;1319;52.346;13.096;2023-02-08T02:44:37;41.23;;;16.73;;
2618;SDS011;1319;52.346;13.096;2023-02-08T02:47:17;36.63;;;15.43;;
2618;SDS011;1319;52.346;13.096;2023-02-08T02:49:48;40.30;;;15.40;;
2618;SDS011;1319;52.346;13.096;2023-02-08T02:52:25;38.80;;;16.13;;
2618;SDS011;1319;52.346;13.096;2023-02-08T02:54:57;41.83;;;17.37;;
2618;SDS011;1319;52.346;13.096;2023-02-08T02:57:27;41.20;;;16.30;;
2618;SDS011;1319;52.346;13.096;2023-02-08T02:59:52;44.80;;;15.83;;
2618;SDS011;1319;52.346;13.096;2023-02-08T03:02:18;34.93;;;15.27;;
2618;SDS011;1319;52.346;13.096;2023-02-08T03:07:20;40.83;;;16.07;;
2618;SDS011;1319;52.346;13.096;2023-02-08T03:10:01;35.47;;;15.90;;
2618;SDS011;1319;52.346;13.096;2023-02-08T03:15:35;38.47;;;15.40;;
2618;SDS011;1319;52.346;13.096;2023-02-08T03:20:38;38.27;;;15.37;;
2618;SDS011;1319;52.346;13.096;2023-02-08T03:23:10;39.60;;;15.63;;
2618;SDS011;1319;52.346;13.096;2023-02-08T03:28:15;33.77;;;14.60;;
2618;SDS011;1319;52.346;13.096;2023-02-08T03:31:27;38.70;;;15.10;;
2618;SDS011;1319;52.346;13.096;2023-02-08T03:33:40;38.07;;;15.77;;
2618;SDS011;1319;52.346;13.096;2023-02-08T03:36:13;38.70;;;15.63;;
2618;SDS011;1319;52.346;13.096;2023-02-08T03:38:42;37.37;;;15.23;;
2618;SDS011;1319;52.346;13.096;2023-02-08T03:41:10;35.17;;;14.77;;
2618;SDS011;1319;52.346;13.096;2023-02-08T03:43:37;40.23;;;15.97;;
2618;SDS011;1319;52.346;13.096;2023-02-08T03:46:12;44.43;;;16.47;;
2618;SDS011;1319;52.346;13.096;2023-02-08T03:48:40;41.73;;;15.87;;
2618;SDS011;1319;52.346;13.096;2023-02-08T03:51:07;36.47;;;15.07;;
2618;SDS011;1319;52.346;13.096;2023-02-08T03:53:32;37.60;;;15.70;;
2618;SDS011;1319;52.346;13.096;2023-02-08T03:56:02;37.60;;;16.30;;
2618;SDS011;1319;52.346;13.096;2023-02-08T03:58:31;38.30;;;15.77;;
2618;SDS011;1319;52.346;13.096;2023-02-08T04:01:00;39.90;;;16.43;;
2618;SDS011;1319;52.346;13.096;2023-02-08T04:03:27;39.37;;;15.73;;
2618;SDS011;1319;52.346;13.096;2023-02-08T04:05:54;40.37;;;15.77;;
2618;SDS011;1319;52.346;13.096;2023-02-08T04:08:20;38.43;;;16.10;;
2618;SDS011;1319;52.346;13.096;2023-02-08T04:10:45;40.47;;;15.90;;
2618;SDS011;1319;52.346;13.096;2023-02-08T04:13:11;35.40;;;15.53;;
2618;SDS011;1319;52.346;13.096;2023-02-08T04:15:36;43.13;;;16.30;;
2618;SDS011;1319;52.346;13.096;2023-02-08T04:18:01;36.70;;;14.63;;
2618;SDS011;1319;52.346;13.096;2023-02-08T04:20:26;37.10;;;15.93;;
2618;SDS011;1319;52.346;13.096;2023-02-08T04:22:52;37.50;;;15.47;;
2618;SDS011;1319;52.346;13.096;2023-02-08T04:25:17;35.80;;;15.87;;
2618;SDS011;1319;52.346;13.096;2023-02-08T04:27:42;39.73;;;15.47;;
2618;SDS011;1319;52.346;13.096;2023-02-08T04:30:08;38.50;;;15.20;;
2618;SDS011;1319;52.346;13.096;2023-02-08T04:32:33;43.90;;;16.70;;
2618;SDS011;1319;52.346;13.096;2023-02-08T04:34:58;44.37;;;16.00;;
2618;SDS011;1319;52.346;13.096;2023-02-08T04:37:24;41.77;;;15.87;;
2618;SDS011;1319;52.346;13.096;2023-02-08T04:39:49;39.30;;;15.30;;
2618;SDS011;1319;52.346;13.096;2023-02-08T04:42:14;37.80;;;15.57;;
2618;SDS011;1319;52.346;13.096;2023-02-08T04:44:39;37.47;;;15.00;;
2618;SDS011;1319;52.346;13.096;2023-02-08T04:47:05;35.90;;;15.57;;
2618;SDS011;1319;52.346;13.096;2023-02-08T04:49:30;34.93;;;15.53;;
2618;SDS011;1319;52.346;13.096;2023-02-08T04:51:55;42.53;;;14.83;;
2618;SDS011;1319;52.346;13.096;2023-02-08T04:54:20;38.57;;;16.60;;
2618;SDS011;1319;52.346;13.096;2023-02-08T04:56:46;40.50;;;16.53;;
2618;SDS011;1319;52.346;13.096;2023-02-08T04:59:11;38.33;;;16.27;;
2618;SDS011;1319;52.346;13.096;2023-02-08T05:01:36;40.83;;;16.67;;
2618;SDS011;1319;52.346;13.096;2023-02-08T05:04:01;35.10;;;15.67;;
2618;SDS011;1319;52.346;13.096;2023-02-08T05:06:27;40.47;;;15.67;;
2618;SDS011;1319;52.346;13.096;2023-02-08T05:08:52;37.13;;;16.37;;
2618;SDS011;1319;52.346;13.096;2023-02-08T05:11:21;35.63;;;14.83;;
2618;SDS011;1319;52.346;13.096;2023-02-08T05:13:46;37.40;;;15.87;;
2618;SDS011;1319;52.346;13.096;2023-02-08T05:16:12;40.43;;;15.73;;
2618;SDS011;1319;52.346;13.096;2023-02-08T05:18:37;37.17;;;16.23;;
2618;SDS011;1319;52.346;13.096;2023-02-08T05:21:02;39.47;;;15.83;;
2618;SDS011;1319;52.346;13.096;2023-02-08T05:23:28;42.37;;;16.93;;
2618;SDS011;1319;52.346;13.096;2023-02-08T05:25:53;40.10;;;16.17;;
2618;SDS011;1319;52.346;13.096;2023-02-08T05:28:18;38.33;;;16.37;;
2618;SDS011;1319;52.346;13.096;2023-02-08T05:30:44;42.37;;;16.93;;
2618;SDS011;1319;52.346;13.096;2023-02-08T05:33:10;41.57;;;16.73;;
2618;SDS011;1319;52.346;13.096;2023-02-08T05:35:35;40.07;;;15.97;;
2618;SDS011;1319;52.346;13.096;2023-02-08T05:38:00;40.40;;;15.50;;
2618;SDS011;1319;52.346;13.096;2023-02-08T05:40:25;41.77;;;16.60;;
2618;SDS011;1319;52.346;13.096;2023-02-08T05:42:51;41.40;;;16.07;;
2618;SDS011;1319;52.346;13.096;2023-02-08T05:45:16;43.93;;;16.93;;
2618;SDS011;1319;52.346;13.096;2023-02-08T05:47:41;38.20;;;16.03;;
2618;SDS011;1319;52.346;13.096;2023-02-08T05:50:07;39.50;;;15.53;;
2618;SDS011;1319;52.346;13.096;2023-02-08T05:52:32;43.67;;;16.47;;
2618;SDS011;1319;52.346;13.096;2023-02-08T05:54:57;36.03;;;15.67;;
2618;SDS011;1319;52.346;13.096;2023-02-08T05:57:22;43.07;;;16.87;;
2618;SDS011;1319;52.346;13.096;2023-02-08T05:59:48;40.43;;;16.80;;
2618;SDS011;1319;52.346;13.096;2023-02-08T06:02:13;37.60;;;14.87;;
2618;SDS011;1319;52.346;13.096;2023-02-08T06:04:38;42.23;;;17.30;;
2618;SDS011;1319;52.346;13.096;2023-02-08T06:07:03;37.13;;;15.50;;
2618;SDS011;1319;52.346;13.096;2023-02-08T06:09:28;40.83;;;16.47;;
2618;SDS011;1319;52.346;13.096;2023-02-08T06:11:54;42.80;;;16.07;;
2618;SDS011;1319;52.346;13.096;2023-02-08T06:14:19;44.43;;;17.17;;
2618;SDS011;1319;52.346;13.096;2023-02-08T06:16:44;41.13;;;15.77;;
2618;SDS011;1319;52.346;13.096;2023-02-08T06:19:09;45.90;;;16.33;;
2618;SDS011;1319;52.346;13.096;2023-02-08T06:21:34;44.07;;;17.30;;
2618;SDS011;1319;52.346;13.096;2023-02-08T06:23:59;40.53;;;16.10;;
2618;SDS011;1319;52.346;13.096;2023-02-08T06:26:25;41.93;;;16.67;;
2618;SDS011;1319;52.346;13.096;2023-02-08T06:28:50;42.90;;;16.77;;
2618;SDS011;1319;52.346;13.096;2023-02-08T06:31:15;41.50;;;16.40;;
2618;SDS011;1319;52.346;13.096;2023-02-08T06:33:40;36.93;;;16.20;;
2618;SDS011;1319;52.346;13.096;2023-02-08T06:36:06;43.70;;;16.97;;
2618;SDS011;1319;52.346;13.096;2023-02-08T06:38:31;44.77;;;17.43;;
2618;SDS011;1319;52.346;13.096;2023-02-08T06:40:56;44.23;;;18.70;;
2618;SDS011;1319;52.346;13.096;2023-02-08T06:43:21;50.50;;;19.37;;
2618;SDS011;1319;52.346;13.096;2023-02-08T06:45:46;49.83;;;19.93;;
2618;SDS011;1319;52.346;13.096;2023-02-08T06:48:12;46.00;;;18.63;;
2618;SDS011;1319;52.346;13.096;2023-02-08T06:50:37;46.13;;;19.43;;
2618;SDS011;1319;52.346;13.096;2023-02-08T06:53:03;40.57;;;17.37;;
2618;SDS011;1319;52.346;13.096;2023-02-08T06:55:28;45.57;;;18.93;;
2618;SDS011;1319;52.346;13.096;2023-02-08T06:57:53;48.23;;;19.17;;
2618;SDS011;1319;52.346;13.096;2023-02-08T07:00:19;47.63;;;18.20;;
2618;SDS011;1319;52.346;13.096;2023-02-08T07:02:44;54.53;;;19.40;;
2618;SDS011;1319;52.346;13.096;2023-02-08T07:05:11;53.57;;;19.47;;
2618;SDS011;1319;52.346;13.096;2023-02-08T07:07:36;48.83;;;19.83;;
2618;SDS011;1319;52.346;13.096;2023-02-08T07:10:01;52.97;;;21.30;;
2618;SDS011;1319;52.346;13.096;2023-02-08T07:12:26;52.73;;;19.40;;
2618;SDS011;1319;52.346;13.096;2023-02-08T07:14:52;46.63;;;18.80;;
2618;SDS011;1319;52.346;13.096;2023-02-08T07:17:17;51.23;;;19.93;;
2618;SDS011;1319;52.346;13.096;2023-02-08T07:19:42;52.83;;;20.60;;
2618;SDS011;1319;52.346;13.096;2023-02-08T07:22:07;48.13;;;19.57;;
2618;SDS011;1319;52.346;13.096;2023-02-08T07:24:36;56.97;;;19.97;;
2618;SDS011;1319;52.346;13.096;2023-02-08T07:27:02;50.67;;;21.40;;
2618;SDS011;1319;52.346;13.096;2023-02-08T07:29:28;56.57;;;20.90;;
2618;SDS011;1319;52.346;13.096;2023-02-08T07:31:53;49.43;;;20.80;;
2618;SDS011;1319;52.346;13.096;2023-02-08T07:34:18;50.20;;;20.13;;
2618;SDS011;1319;52.346;13.096;2023-02-08T07:36:46;51.73;;;19.87;;
2618;SDS011;1319;52.346;13.096;2023-02-08T07:39:11;51.73;;;20.77;;
2618;SDS011;1319;52.346;13.096;2023-02-08T07:41:36;49.97;;;20.13;;
2618;SDS011;1319;52.346;13.096;2023-02-08T07:44:01;55.30;;;21.00;;
2618;SDS011;1319;52.346;13.096;2023-02-08T07:46:26;53.80;;;21.83;;
2618;SDS011;1319;52.346;13.096;2023-02-08T07:48:52;58.13;;;22.33;;
2618;SDS011;1319;52.346;13.096;2023-02-08T07:51:17;54.20;;;21.93;;
2618;SDS011;1319;52.346;13.096;2023-02-08T07:53:42;61.13;;;24.03;;
2618;SDS011;1319;52.346;13.096;2023-02-08T07:56:08;56.20;;;24.83;;
2618;SDS011;1319;52.346;13.096;2023-02-08T07:58:34;66.77;;;26.17;;
2618;SDS011;1319;52.346;13.096;2023-02-08T08:00:59;62.53;;;24.63;;
2618;SDS011;1319;52.346;13.096;2023-02-08T08:03:24;68.37;;;25.17;;
2618;SDS011;1319;52.346;13.096;2023-02-08T08:05:50;61.37;;;25.67;;
2618;SDS011;1319;52.346;13.096;2023-02-08T08:08:15;66.33;;;25.33;;
2618;SDS011;1319;52.346;13.096;2023-02-08T08:10:40;60.90;;;25.33;;
2618;SDS011;1319;52.346;13.096;2023-02-08T08:13:06;67.87;;;27.10;;
2618;SDS011;1319;52.346;13.096;2023-02-08T08:15:31;62.87;;;26.20;;
2618;SDS011;1319;52.346;13.096;2023-02-08T08:17:56;60.27;;;25.03;;
2618;SDS011;1319;52.346;13.096;2023-02-08T08:20:21;70.50;;;27.67;;
2618;SDS011;1319;52.346;13.096;2023-02-08T08:22:47;70.70;;;27.40;;
2618;SDS011;1319;52.346;13.096;2023-02-08T08:25:12;72.83;;;28.17;;
2618;SDS011;1319;52.346;13.096;2023-02-08T08:27:38;76.00;;;28.60;;
2618;SDS011;1319;52.346;13.096;2023-02-08T08:30:07;74.40;;;28.53;;
2618;SDS011;1319;52.346;13.096;2023-02-08T08:32:32;72.13;;;27.57;;
2618;SDS011;1319;52.346;13.096;2023-02-08T08:34:57;70.07;;;29.00;;
2618;SDS011;1319;52.346;13.096;2023-02-08T08:37:22;64.87;;;26.97;;
2618;SDS011;1319;52.346;13.096;2023-02-08T08:39:48;66.60;;;27.00;;
2618;SDS011;1319;52.346;13.096;2023-02-08T08:42:13;68.53;;;26.93;;
2618;SDS011;1319;52.346;13.096;2023-02-08T08:44:38;62.33;;;26.20;;
2618;SDS011;1319;52.346;13.096;2023-02-08T08:47:04;65.33;;;26.73;;
2618;SDS011;1319;52.346;13.096;2023-02-08T08:49:29;63.30;;;26.03;;
2618;SDS011;1319;52.346;13.096;2023-02-08T08:51:54;60.30;;;26.33;;
2618;SDS011;1319;52.346;13.096;2023-02-08T08:54:20;63.03;;;25.33;;
2618;SDS011;1319;52.346;13.096;2023-02-08T08:56:45;62.53;;;27.60;;
2618;SDS011;1319;52.346;13.096;2023-02-08T08:59:11;56.90;;;24.63;;
2618;SDS011;1319;52.346;13.096;2023-02-08T09:01:36;58.27;;;24.77;;
2618;SDS011;1319;52.346;13.096;2023-02-08T09:04:02;54.50;;;25.17;;
2618;SDS011;1319;52.346;13.096;2023-02-08T09:06:27;51.80;;;24.27;;
2618;SDS011;1319;52.346;13.096;2023-02-08T09:08:52;49.97;;;23.50;;
2618;SDS011;1319;52.346;13.096;2023-02-08T09:11:18;55.83;;;25.23;;
2618;SDS011;1319;52.346;13.096;2023-02-08T09:13:43;53.97;;;24.07;;
2618;SDS011;1319;52.346;13.096;2023-02-08T09:16:10;48.03;;;24.00;;
2618;SDS011;1319;52.346;13.096;2023-02-08T09:18:36;51.53;;;23.77;;
2618;SDS011;1319;52.346;13.096;2023-02-08T09:21:05;46.03;;;23.70;;
2618;SDS011;1319;52.346;13.096;2023-02-08T09:23:30;49.87;;;23.77;;
2618;SDS011;1319;52.346;13.096;2023-02-08T09:25:55;49.33;;;23.60;;
2618;SDS011;1319;52.346;13.096;2023-02-08T09:28:21;48.67;;;23.80;;
2618;SDS011;1319;52.346;13.096;2023-02-08T09:30:46;49.20;;;24.87;;
2618;SDS011;1319;52.346;13.096;2023-02-08T09:33:11;51.40;;;24.83;;
2618;SDS011;1319;52.346;13.096;2023-02-08T09:35:36;51.80;;;23.97;;
2618;SDS011;1319;52.346;13.096;2023-02-08T09:38:01;51.40;;;25.83;;
2618;SDS011;1319;52.346;13.096;2023-02-08T09:40:53;51.67;;;24.80;;
2618;SDS011;1319;52.346;13.096;2023-02-08T09:43:20;47.00;;;24.83;;
2618;SDS011;1319;52.346;13.096;2023-02-08T09:45:49;50.23;;;24.60;;
2618;SDS011;1319;52.346;13.096;2023-02-08T09:48:23;53.53;;;26.10;;
2618;SDS011;1319;52.346;13.096;2023-02-08T09:50:53;47.70;;;25.60;;
2618;SDS011;1319;52.346;13.096;2023-02-08T09:53:28;45.47;;;25.00;;
2618;SDS011;1319;52.346;13.096;2023-02-08T09:55:56;48.07;;;24.83;;
2618;SDS011;1319;52.346;13.096;2023-02-08T09:58:36;46.63;;;25.53;;
2618;SDS011;1319;52.346;13.096;2023-02-08T10:01:02;47.27;;;25.23;;
2618;SDS011;1319;52.346;13.096;2023-02-08T10:03:38;50.37;;;25.87;;
2618;SDS011;1319;52.346;13.096;2023-02-08T10:06:04;46.63;;;26.37;;
2618;SDS011;1319;52.346;13.096;2023-02-08T10:08:30;47.03;;;25.77;;
2618;SDS011;1319;52.346;13.096;2023-02-08T10:13:45;51.80;;;26.67;;
2618;SDS011;1319;52.346;13.096;2023-02-08T10:21:40;47.00;;;25.00;;
2618;SDS011;1319;52.346;13.096;2023-02-08T10:26:58;48.43;;;26.17;;
2618;SDS011;1319;52.346;13.096;2023-02-08T10:36:55;50.50;;;26.93;;
2618;SDS011;1319;52.346;13.096;2023-02-08T10:39:27;50.17;;;25.90;;
2618;SDS011;1319;52.346;13.096;2023-02-08T10:41:53;53.00;;;26.23;;
2618;SDS011;1319;52.346;13.096;2023-02-08T10:47:12;53.83;;;26.13;;
2618;SDS011;1319;52.346;13.096;2023-02-08T10:52:08;51.07;;;25.37;;
2618;SDS011;1319;52.346;13.096;2023-02-08T10:54:34;51.70;;;25.73;;
2618;SDS011;1319;52.346;13.096;2023-02-08T10:57:00;55.77;;;26.03;;
2618;SDS011;1319;52.346;13.096;2023-02-08T10:59:38;55.80;;;26.73;;
2618;SDS011;1319;52.346;13.096;2023-02-08T11:02:52;53.83;;;25.83;;
2618;SDS011;1319;52.346;13.096;2023-02-08T11:05:00;53.60;;;25.90;;
2618;SDS011;1319;52.346;13.096;2023-02-08T11:07:25;51.27;;;26.57;;
2618;SDS011;1319;52.346;13.096;2023-02-08T11:09:51;49.93;;;26.37;;
2618;SDS011;1319;52.346;13.096;2023-02-08T11:12:19;52.60;;;27.70;;
2618;SDS011;1319;52.346;13.096;2023-02-08T11:14:50;49.77;;;27.70;;
2618;SDS011;1319;52.346;13.096;2023-02-08T11:17:26;51.33;;;27.13;;
2618;SDS011;1319;52.346;13.096;2023-02-08T11:19:52;52.87;;;28.13;;
2618;SDS011;1319;52.346;13.096;2023-02-08T11:22:18;57.03;;;29.23;;
2618;SDS011;1319;52.346;13.096;2023-02-08T11:24:44;55.53;;;30.70;;
2618;SDS011;1319;52.346;13.096;2023-02-08T11:27:34;53.63;;;29.80;;
2618;SDS011;1319;52.346;13.096;2023-02-08T11:32:36;55.30;;;31.33;;
2618;SDS011;1319;52.346;13.096;2023-02-08T11:35:10;51.60;;;29.90;;
2618;SDS011;1319;52.346;13.096;2023-02-08T11:37:36;55.87;;;32.40;;
2618;SDS011;1319;52.346;13.096;2023-02-08T11:40:01;55.60;;;30.60;;
2618;SDS011;1319;52.346;13.096;2023-02-08T11:42:29;54.57;;;30.63;;
2618;SDS011;1319;52.346;13.096;2023-02-08T11:44:55;53.13;;;31.17;;
2618;SDS011;1319;52.346;13.096;2023-02-08T11:47:25;51.27;;;30.87;;
2618;SDS011;1319;52.346;13.096;2023-02-08T11:49:51;57.00;;;31.83;;
2618;SDS011;1319;52.346;13.096;2023-02-08T11:52:23;52.23;;;31.33;;
2618;SDS011;1319;52.346;13.096;2023-02-08T11:54:50;49.40;;;29.87;;
2618;SDS011;1319;52.346;13.096;2023-02-08T11:57:17;50.50;;;29.33;;
2618;SDS011;1319;52.346;13.096;2023-02-08T11:59:46;51.03;;;30.40;;
2618;SDS011;1319;52.346;13.096;2023-02-08T12:04:49;46.43;;;28.10;;
2618;SDS011;1319;52.346;13.096;2023-02-08T12:12:26;42.87;;;26.60;;
2618;SDS011;1319;52.346;13.096;2023-02-08T12:17:54;42.47;;;27.17;;
2618;SDS011;1319;52.346;13.096;2023-02-08T12:25:26;46.73;;;27.73;;
2618;SDS011;1319;52.346;13.096;2023-02-08T12:30:32;45.37;;;26.47;;
2618;SDS011;1319;52.346;13.096;2023-02-08T12:33:14;43.80;;;27.17;;
2618;SDS011;1319;52.346;13.096;2023-02-08T12:35:51;40.33;;;26.13;;
2618;SDS011;1319;52.346;13.096;2023-02-08T12:41:12;41.50;;;26.87;;
2618;SDS011;1319;52.346;13.096;2023-02-08T12:48:54;44.92;;;26.48;;
2618;SDS011;1319;52.346;13.096;2023-02-08T12:54:01;41.10;;;26.15;;
2618;SDS011;1319;52.346;13.096;2023-02-08T12:56:29;40.95;;;27.30;;
2618;SDS011;1319;52.346;13.096;2023-02-08T12:58:57;40.13;;;25.42;;
2618;SDS011;1319;52.346;13.096;2023-02-08T13:03:55;36.90;;;24.13;;
2618;SDS011;1319;52.346;13.096;2023-02-08T13:06:22;35.80;;;22.83;;
2618;SDS011;1319;52.346;13.096;2023-02-08T13:08:59;38.70;;;24.63;;
2618;SDS011;1319;52.346;13.096;2023-02-08T13:11:35;37.25;;;23.27;;
2618;SDS011;1319;52.346;13.096;2023-02-08T13:14:05;36.08;;;22.52;;
2618;SDS011;1319;52.346;13.096;2023-02-08T13:16:35;33.73;;;21.63;;
2618;SDS011;1319;52.346;13.096;2023-02-08T13:21:33;34.37;;;21.77;;
2618;SDS011;1319;52.346;13.096;2023-02-08T13:24:05;36.83;;;22.27;;
2618;SDS011;1319;52.346;13.096;2023-02-08T13:26:31;34.87;;;22.37;;
2618;SDS011;1319;52.346;13.096;2023-02-08T13:28:58;34.23;;;22.60;;
2618;SDS011;1319;52.346;13.096;2023-02-08T13:31:57;35.17;;;21.63;;
2618;SDS011;1319;52.346;13.096;2023-02-08T13:34:30;34.63;;;22.00;;
2618;SDS011;1319;52.346;13.096;2023-02-08T13:37:00;35.13;;;22.93;;
2618;SDS011;1319;52.346;13.096;2023-02-08T13:41:52;33.42;;;22.17;;
2618;SDS011;1319;52.346;13.096;2023-02-08T13:44:19;33.03;;;22.60;;
2618;SDS011;1319;52.346;13.096;2023-02-08T13:46:46;34.30;;;22.07;;
2618;SDS011;1319;52.346;13.096;2023-02-08T13:51:56;34.67;;;22.63;;
2618;SDS011;1319;52.346;13.096;2023-02-08T13:54:22;34.57;;;22.50;;
2618;SDS011;1319;52.346;13.096;2023-02-08T13:56:50;32.27;;;21.07;;
2618;SDS011;1319;52.346;13.096;2023-02-08T13:59:29;36.90;;;22.77;;
2618;SDS011;1319;52.346;13.096;2023-02-08T14:05:31;33.73;;;22.00;;
2618;SDS011;1319;52.346;13.096;2023-02-08T14:07:43;35.87;;;22.27;;
2618;SDS011;1319;52.346;13.096;2023-02-08T14:10:27;35.83;;;22.40;;
2618;SDS011;1319;52.346;13.096;2023-02-08T14:15:38;37.60;;;22.57;;
2618;SDS011;1319;52.346;13.096;2023-02-08T14:18:04;37.07;;;22.97;;
2618;SDS011;1319;52.346;13.096;2023-02-08T14:20:44;40.33;;;23.67;;
2618;SDS011;1319;52.346;13.096;2023-02-08T14:23:23;38.37;;;22.90;;
2618;SDS011;1319;52.346;13.096;2023-02-08T14:25:50;37.87;;;23.43;;
2618;SDS011;1319;52.346;13.096;2023-02-08T14:31:04;41.47;;;24.90;;
2618;SDS011;1319;52.346;13.096;2023-02-08T14:33:32;40.50;;;24.43;;
2618;SDS011;1319;52.346;13.096;2023-02-08T14:36:00;37.60;;;24.20;;
2618;SDS011;1319;52.346;13.096;2023-02-08T14:40:57;39.83;;;25.07;;
2618;SDS011;1319;52.346;13.096;2023-02-08T14:45:52;40.53;;;24.67;;
2618;SDS011;1319;52.346;13.096;2023-02-08T14:48:40;39.33;;;24.10;;
2618;SDS011;1319;52.346;13.096;2023-02-08T14:56:13;43.93;;;25.43;;
2618;SDS011;1319;52.346;13.096;2023-02-08T14:58:40;41.50;;;24.63;;
2618;SDS011;1319;52.346;13.096;2023-02-08T15:01:18;43.10;;;24.93;;
2618;SDS011;1319;52.346;13.096;2023-02-08T15:03:44;41.10;;;24.00;;
2618;SDS011;1319;52.346;13.096;2023-02-08T15:08:34;43.53;;;24.50;;
2618;SDS011;1319;52.346;13.096;2023-02-08T15:11:00;41.57;;;24.10;;
2618;SDS011;1319;52.346;13.096;2023-02-08T15:13:25;45.50;;;24.80;;
2618;SDS011;1319;52.346;13.096;2023-02-08T15:15:51;41.03;;;23.50;;
2618;SDS011;1319;52.346;13.096;2023-02-08T15:18:18;44.73;;;23.73;;
2618;SDS011;1319;52.346;13.096;2023-02-08T15:20:43;48.40;;;23.90;;
2618;SDS011;1319;52.346;13.096;2023-02-08T15:23:19;53.80;;;24.90;;
2618;SDS011;1319;52.346;13.096;2023-02-08T15:25:53;47.13;;;24.87;;
2618;SDS011;1319;52.346;13.096;2023-02-08T15:28:19;46.10;;;24.47;;
2618;SDS011;1319;52.346;13.096;2023-02-08T15:30:45;49.97;;;24.70;;
2618;SDS011;1319;52.346;13.096;2023-02-08T15:33:16;49.60;;;25.57;;
2618;SDS011;1319;52.346;13.096;2023-02-08T15:35:42;47.10;;;23.50;;
2618;SDS011;1319;52.346;13.096;2023-02-08T15:38:11;46.17;;;23.07;;
2618;SDS011;1319;52.346;13.096;2023-02-08T15:40:39;47.93;;;24.07;;
2618;SDS011;1319;52.346;13.096;2023-02-08T15:45:32;46.53;;;24.33;;
2618;SDS011;1319;52.346;13.096;2023-02-08T15:47:58;53.03;;;25.43;;
2618;SDS011;1319;52.346;13.096;2023-02-08T15:50:24;57.10;;;26.80;;
2618;SDS011;1319;52.346;13.096;2023-02-08T15:52:53;56.13;;;26.87;;
2618;SDS011;1319;52.346;13.096;2023-02-08T15:55:20;50.70;;;25.57;;
2618;SDS011;1319;52.346;13.096;2023-02-08T15:57:46;49.90;;;23.93;;
2618;SDS011;1319;52.346;13.096;2023-02-08T16:00:25;43.43;;;22.27;;
2618;SDS011;1319;52.346;13.096;2023-02-08T16:02:52;56.07;;;24.13;;
2618;SDS011;1319;52.346;13.096;2023-02-08T16:05:19;47.53;;;23.57;;
2618;SDS011;1319;52.346;13.096;2023-02-08T16:07:45;47.83;;;23.90;;
2618;SDS011;1319;52.346;13.096;2023-02-08T16:10:21;57.60;;;25.43;;
2618;SDS011;1319;52.346;13.096;2023-02-08T16:12:52;55.00;;;25.50;;
2618;SDS011;1319;52.346;13.096;2023-02-08T16:18:01;52.40;;;25.00;;
2618;SDS011;1319;52.346;13.096;2023-02-08T16:20:31;56.73;;;25.73;;
2618;SDS011;1319;52.346;13.096;2023-02-08T16:22:58;51.83;;;23.70;;
2618;SDS011;1319;52.346;13.096;2023-02-08T16:25:29;54.43;;;24.53;;
2618;SDS011;1319;52.346;13.096;2023-02-08T16:27:56;54.93;;;24.63;;
2618;SDS011;1319;52.346;13.096;2023-02-08T16:30:21;56.17;;;25.73;;
2618;SDS011;1319;52.346;13.096;2023-02-08T16:32:47;60.80;;;27.43;;
2618;SDS011;1319;52.346;13.096;2023-02-08T16:35:21;57.97;;;26.67;;
2618;SDS011;1319;52.346;13.096;2023-02-08T16:37:52;59.30;;;27.27;;
2618;SDS011;1319;52.346;13.096;2023-02-08T16:43:18;63.23;;;28.03;;
2618;SDS011;1319;52.346;13.096;2023-02-08T16:45:43;64.97;;;27.30;;
2618;SDS011;1319;52.346;13.096;2023-02-08T16:48:29;58.90;;;27.10;;